Campo di Volo "La Canonica"

IT-0428 · 威尼托, 意大利

罗盘
风向 的 风向 的 风向 到 风向 050° Campo di Volo "La Canonica" 7/25
风: 4 kt, 2 beaufort

4 kt

1 kt
改变
0 ft 2.000 4.000 6.000 8.000 10.000
Cloud Cloud
FEW 8.100
METAR LIPH 172320Z AUTO 05004KT 020V080 9999 FEW081/// 15/13 Q1013

METAR Campo di Volo "La Canonica" - IT-0428

Campo di Volo "La Canonica"是,意大利中的小机场。 该机场位于纬度45,63516和经度12,34032。 该机场有一条跑道: 7/25. 这个机场没有ICAO代码,我们使用IT-0428作为参考。 机场在Milano FIR中。

该航空气象观测是针对Treviso-Sant'Angelo Airport在2024年5月18日 01:20, 当地时间进行的。

机场观察

风向为050°,速度为4 kt。 风向在020°和080°之间变化。

可见度为10 km 或者更多。

有几云在8.100 ft的高度。 没有观察到天花板。

温度和风寒是15 °C。 露点为13 °C,相对湿度为88%。 海平面上的气压为1013 hPa (QNH)。

白天

今天,太阳从05:36升起,在20:37降落。 这适用于Campo di Volo "La Canonica",世界夏令时可能有所不同。 当地时间与世界标准时间之间的时差为+2 小时。 夏令时目前正在进行中。

公司介绍

我们没有关于这个机场的公司信息。

体会

到Vliegles.nl去找飞行课程,跳伞和其他飞行体验。 浏览页面,了解Campo di Volo "La Canonica"附近所有可用的活动。 你也可以使用搜索功能来寻找你所在地附近的特定飞行课程、跳伞或其他飞行体验。

跑道

Id 标题 侧风 逆风 侧风 %
7/25 064°-244° 4 kt 24 %

逆风成分最大的方向会被突出显示,并用于横风计算。 这并不一定意味着这个方向在使用。

乌云

8.100 ft FEW 几云

温度 & 天气

温度 15 °C
露点 13 °C
相对湿度 88%
Kp-index 5 (0-9)

白天

日出
05:37 (3:39)
中午
13:07
日落
20:38

小工具

你想在你的网站上有一个关于Campo di Volo "La Canonica"的当前航空天气(METAR)的小部件吗?

显示HTML代码
报告变更